Airfield :
LOGIN :

Register | Disclaimer

   EN    FR    IT 

 










Legend :    VFR   Marginal VFR   IFR   Intensive IFR   Very Intensive IFR
Visi :
Ceiling :
>= 8 km
>= 3000ft
5 to 8 km
1000 to 3000 ft
1500m to 5 km
500 to 1000 ft
800 to 1500m
200 to 500 ft
< 800m
< 200 ft
Symbols :   Thunderstorms  Fog  Heavy snow  Heavy precipitations  Wind > 20 kt
SIGMETs :     Misc.  Thunderstorms  Icing  Turbulence  Mountain Waves  Volcanic Ashes






- Airport Elevation : 162 ft
- IATA code : BOD


LFBD - Bordeaux / Merignac

CURRENT METAR :
  • 271730Z AUTO 30013KT 9999 FEW021 BKN048 11/08 Q1017 NOSIG

EXPIRED METARs :
  • 271700Z AUTO 31009KT 280V340 9999 -RA BKN019 BKN038 BKN048 11/08 Q1016 NOSIG
  • 271630Z AUTO 31013KT 9999 FEW018 SCT024 OVC060 12/09 Q1015 NOSIG
  • 271600Z AUTO 32015KT 290V350 9999 FEW009/// BKN016/// OVC060/// ///TCU 12/10 Q1015 BECMG BKN018
  • 271530Z AUTO 30015KT 9999 BKN013/// BKN020/// OVC026/// ///TCU 12/11 Q1014 BECMG BKN018
  • 271500Z AUTO 28021KT 9999 BKN018/// OVC023/// ///TCU 14/11 Q1013 BECMG BKN018

TAF TAF LFBD
Valid from the 27 at 18:00 until the 29 at 00:00 UTC


271700Z 2718/2824 29012KT 9999 FEW018 SCT045 TX15/2815Z TN06/2800Z
BECMG 2722/2724 14005KT
PROB30 2802/2806 0500 FG
FM280600 14005KT 6000 BKN012
TEMPO 2806/2812 2000 -DZ OVC005
BECMG 2812/2814 9999 BKN016
BECMG 2814/2816 CAVOK
PROB30
TEMPO 2821/2824 3000 MIFG
ATIS : +33 5 57 92 81 04



MET'MAP, your aeronautical weather chart ! - Copyright ORBIFLY December 2007 - Disclaimer

ORBIFLY MET'MAP TEAM :

Programming & Development : Alexandra Zaïnal
Concept & original design : Baudouin d'Aumeries
Assistance for programming : Marc-Olivier Méhu
Technical & hardware support : Manuel Goepfert

Contact : metmap@orbifly.com




SOURCES & CREDITS :

   NOAA